Hawthorne Army Ammunition Pl, Nevada
Current Conditions -  °F | °C
As of 6:52 PM on Thursday 18 Dec 2014 (Local Time) from KBAN Reporting Station
Clear Clear  
Wind Chill: 30°   Ceiling: Unl
Heat Index: 30°   Visibility: NA
Dew Point: 20°   Wind: 0mph
Humidity: 66%   Direction: NA
Pressure: 30.13"   Gusts: NA
Location:  38.6331°N, 118.656°W
Report Text: KBAN 190252Z AUTO 00000KT CLR M01/M07 A3013 RMK AO2 SLP230 T10111067 51012 FZRANO $
Loading
Personal Weather Stations






























Interactive Weather Map New forecast layout! Learn more

10-Day Weather Forecast

Advertisements
Track Severe Weather on mobile